Time;durP1;ratioP1;P1;durP2;ratioP2;P2;SDS_P1;SDS_P2;PMS_P1;PMS_P2;Temp;Humidity;BMP_temperature;BMP_pressure;BME280_temperature;BME280_humidity;BME280_pressure;Samples;Min_cycle;Max_cycle;Signal;HPM_P1;HPM_P2
2023/10/12 00:00:33;;;;;;;8.38;3.83;;;;;16.70;94318.00;;;;7399123;19;20165;-74
2023/10/12 00:03:12;;;;;;;10.65;4.20;;;;;16.70;94316.00;;;;7396932;19;20184;-75
2023/10/12 00:05:46;;;;;;;9.15;3.70;;;;;16.70;94314.00;;;;7397978;19;20167;-75
2023/10/12 00:08:30;;;;;;;13.82;3.85;;;;;16.70;94317.00;;;;7400061;19;20133;-75
2023/10/12 00:11:06;;;;;;;9.40;4.10;;;;;16.60;94309.00;;;;7400760;19;20133;-75
2023/10/12 00:13:43;;;;;;;7.47;3.53;;;;;16.60;94315.00;;;;7400424;19;20655;-75
2023/10/12 00:16:12;;;;;;;9.25;3.65;;;;;16.40;94304.00;;;;7400631;19;20192;-76
2023/10/12 00:18:49;;;;;;;10.85;3.97;;;;;16.50;94316.00;;;;7398998;19;20650;-75
2023/10/12 00:21:25;;;;;;;8.32;3.88;;;;;16.50;94305.00;;;;7397337;19;20200;-75
2023/10/12 00:24:00;;;;;;;6.78;4.20;;;;;16.30;94307.00;;;;7399064;19;20129;-78
2023/10/12 00:26:35;;;;;;;8.10;4.13;;;;;16.30;94307.00;;;;7399159;19;20615;-80
2023/10/12 00:29:07;;;;;;;6.50;3.58;;;;;16.20;94301.00;;;;7399272;19;20900;-79
2023/10/12 00:31:43;;;;;;;11.45;4.45;;;;;16.30;94304.00;;;;7395884;19;20152;-79
2023/10/12 00:34:22;;;;;;;13.35;4.10;;;;;16.30;94292.00;;;;7399394;19;20180;-78
2023/10/12 00:36:57;;;;;;;7.13;3.58;;;;;16.30;94293.00;;;;7398045;19;20145;-81
2023/10/12 00:39:34;;;;;;;8.20;4.07;;;;;16.20;94283.00;;;;7399588;19;20204;-79
2023/10/12 00:42:08;;;;;;;9.60;4.10;;;;;15.90;94275.00;;;;7399330;19;20151;-78
2023/10/12 00:44:40;;;;;;;14.23;4.43;;;;;16.10;94280.00;;;;7397785;19;20159;-80
2023/10/12 00:47:43;;;;;;;10.73;4.10;;;;;16.10;94275.00;;;;7397381;19;20155;-78
2023/10/12 00:50:16;;;;;;;15.45;4.70;;;;;16.10;94278.00;;;;7399369;19;20140;-79
2023/10/12 00:52:56;;;;;;;9.02;3.97;;;;;16.10;94274.00;;;;7399703;19;20204;-80
2023/10/12 00:55:37;;;;;;;7.97;4.28;;;;;16.10;94271.00;;;;7398634;19;20148;-79
2023/10/12 00:58:08;;;;;;;8.43;4.07;;;;;16.20;94274.00;;;;7397696;19;20136;-79
2023/10/12 01:00:51;;;;;;;10.68;4.00;;;;;16.20;94276.00;;;;7392826;19;20136;-78
2023/10/12 01:08:47;;;;;;;11.43;4.30;;;;;16.10;94266.00;;;;7396447;19;20152;-79
2023/10/12 01:11:25;;;;;;;9.45;4.07;;;;;16.00;94269.00;;;;7398581;19;20660;-79
2023/10/12 01:19:44;;;;;;;7.15;4.15;;;;;15.80;94257.00;;;;7395321;19;20216;-80
2023/10/12 01:22:31;;;;;;;12.60;4.13;;;;;15.70;94261.00;;;;7396571;19;20196;-79
2023/10/12 01:25:42;;;;;;;11.35;4.25;;;;;15.70;94258.00;;;;7394982;19;20754;-79
2023/10/12 01:28:12;;;;;;;8.13;4.22;;;;;15.80;94251.00;;;;7396554;19;20145;-79
2023/10/12 01:30:46;;;;;;;10.05;4.28;;;;;15.70;94241.00;;;;7398209;19;20147;-80
2023/10/12 01:33:14;;;;;;;12.30;3.42;;;;;15.80;94240.00;;;;7396360;19;20580;-78
2023/10/12 01:35:49;;;;;;;7.97;3.83;;;;;15.70;94230.00;;;;7393644;19;20266;-78
2023/10/12 01:38:24;;;;;;;12.52;4.15;;;;;15.70;94244.00;;;;7397260;19;20140;-78
2023/10/12 01:40:58;;;;;;;10.73;4.35;;;;;15.60;94246.00;;;;7397272;19;20160;-78
2023/10/12 01:43:28;;;;;;;8.40;4.07;;;;;15.60;94244.00;;;;7395201;19;20141;-78
2023/10/12 01:46:09;;;;;;;8.55;4.10;;;;;15.70;94249.00;;;;7399549;19;20644;-78
2023/10/12 01:48:38;;;;;;;8.95;4.22;;;;;15.50;94239.00;;;;7396757;19;20611;-79
2023/10/12 01:51:17;;;;;;;11.48;4.45;;;;;15.40;94243.00;;;;7397298;19;20463;-78
2023/10/12 01:53:44;;;;;;;7.13;4.20;;;;;15.30;94244.00;;;;7397393;19;20177;-78
2023/10/12 01:56:19;;;;;;;11.20;4.20;;;;;15.40;94235.00;;;;7395880;19;20132;-78
2023/10/12 01:58:51;;;;;;;7.93;4.38;;;;;15.50;94235.00;;;;7395895;19;20205;-78
2023/10/12 02:01:25;;;;;;;8.50;4.18;;;;;15.50;94234.00;;;;7394964;19;20148;-77
2023/10/12 02:03:56;;;;;;;9.90;4.10;;;;;15.40;94238.00;;;;7393745;19;20651;-78
2023/10/12 02:06:39;;;;;;;7.90;4.07;;;;;15.40;94235.00;;;;7393757;19;20556;-79
2023/10/12 02:09:15;;;;;;;7.85;4.00;;;;;15.20;94230.00;;;;7397825;19;20132;-79
2023/10/12 02:11:44;;;;;;;10.85;4.60;;;;;15.30;94238.00;;;;7395499;19;20133;-78
2023/10/12 02:14:33;;;;;;;10.55;4.28;;;;;15.20;94233.00;;;;7396030;19;20156;-77
2023/10/12 02:17:09;;;;;;;10.68;4.22;;;;;15.10;94239.00;;;;7393856;19;20216;-78
2023/10/12 02:19:43;;;;;;;8.88;4.60;;;;;14.90;94238.00;;;;7394342;19;20161;-79
2023/10/12 02:22:23;;;;;;;8.95;4.38;;;;;14.60;94238.00;;;;7396638;19;20203;-77
2023/10/12 02:25:18;;;;;;;9.45;4.30;;;;;14.50;94233.00;;;;7396689;19;20132;-79
2023/10/12 02:27:54;;;;;;;7.53;4.05;;;;;14.40;94230.00;;;;7398748;19;20136;-78
2023/10/12 02:30:30;;;;;;;11.73;4.47;;;;;14.30;94232.00;;;;7401782;19;20129;-79
2023/10/12 02:33:01;;;;;;;8.60;4.25;;;;;14.40;94225.00;;;;7400275;19;20165;-80
2023/10/12 02:35:44;;;;;;;9.88;3.95;;;;;14.60;94236.00;;;;7399779;19;20474;-80
2023/10/12 02:38:15;;;;;;;10.65;4.10;;;;;14.50;94230.00;;;;7401106;19;20151;-81
2023/10/12 02:40:57;;;;;;;12.07;4.63;;;;;14.70;94228.00;;;;7398249;19;20128;-79
2023/10/12 02:43:33;;;;;;;11.75;4.07;;;;;14.80;94212.00;;;;7396294;19;20144;-81
2023/10/12 02:46:04;;;;;;;7.82;4.32;;;;;14.90;94212.00;;;;7397953;19;20133;-79
2023/10/12 02:48:39;;;;;;;7.75;4.30;;;;;15.00;94219.00;;;;7397936;19;20140;-80
2023/10/12 02:51:07;;;;;;;9.50;4.28;;;;;15.30;94213.00;;;;7395733;19;20137;-80
2023/10/12 02:53:41;;;;;;;7.00;3.88;;;;;15.60;94215.00;;;;7396295;19;20604;-80
2023/10/12 02:56:09;;;;;;;11.90;4.30;;;;;16.20;94205.00;;;;7401575;19;20136;-78
2023/10/12 02:58:45;;;;;;;9.35;4.25;;;;;16.40;94206.00;;;;7403895;19;20196;-78
2023/10/12 03:01:19;;;;;;;9.80;4.30;;;;;16.80;94207.00;;;;7402628;19;20637;-79
2023/10/12 03:03:55;;;;;;;5.03;3.78;;;;;16.80;94205.00;;;;7402149;19;20155;-80
2023/10/12 03:06:36;;;;;;;8.07;3.80;;;;;16.90;94199.00;;;;7397078;19;20510;-80
2023/10/12 03:09:14;;;;;;;6.45;4.20;;;;;17.00;94213.00;;;;7399057;19;20148;-80
2023/10/12 03:11:42;;;;;;;7.38;4.13;;;;;17.10;94213.00;;;;7400091;19;20133;-82
2023/10/12 03:14:26;;;;;;;10.07;4.22;;;;;17.10;94209.00;;;;7401736;19;20631;-81
2023/10/12 03:17:02;;;;;;;9.13;4.10;;;;;17.20;94210.00;;;;7400383;19;20468;-78
2023/10/12 03:19:39;;;;;;;7.72;4.28;;;;;17.10;94203.00;;;;7402193;19;20136;-78
2023/10/12 03:22:25;;;;;;;9.15;4.07;;;;;17.00;94207.00;;;;7400964;19;20240;-78
2023/10/12 03:25:20;;;;;;;8.75;4.15;;;;;17.30;94214.00;;;;7400595;19;20200;-79
2023/10/12 03:27:53;;;;;;;7.72;3.65;;;;;17.20;94223.00;;;;7398442;19;20176;-80
2023/10/12 03:30:43;;;;;;;11.02;4.28;;;;;17.40;94215.00;;;;7398559;19;20133;-78
2023/10/12 03:33:15;;;;;;;8.05;4.03;;;;;17.70;94218.00;;;;7404427;19;20625;-83
2023/10/12 03:35:57;;;;;;;10.02;4.22;;;;;17.80;94213.00;;;;7400835;19;20157;-82
2023/10/12 03:38:32;;;;;;;11.38;5.15;;;;;17.80;94214.00;;;;7399503;19;20140;-81
2023/10/12 03:44:02;;;;;;;8.40;4.10;;;;;18.30;94206.00;;;;7399842;19;20129;-84
2023/10/12 03:46:45;;;;;;;8.45;4.22;;;;;18.30;94211.00;;;;7396316;19;20169;-81
2023/10/12 03:49:32;;;;;;;8.23;4.65;;;;;18.20;94208.00;;;;7399131;19;20149;-81
2023/10/12 03:52:13;;;;;;;12.35;4.43;;;;;18.40;94202.00;;;;7399355;19;20133;-83
2023/10/12 03:58:00;;;;;;;8.45;4.30;;;;;18.40;94194.00;;;;7396238;19;20607;-82
2023/10/12 04:00:40;;;;;;;8.40;4.35;;;;;18.40;94199.00;;;;7398040;19;20143;-79
2023/10/12 04:03:19;;;;;;;13.93;4.63;;;;;18.60;94191.00;;;;7396804;19;20145;-80
2023/10/12 04:06:23;;;;;;;9.40;4.30;;;;;18.50;94197.00;;;;6898554;19;9728849;-83
2023/10/12 04:08:59;;;;;;;7.28;3.97;;;;;18.40;94204.00;;;;7398670;19;20524;-79
2023/10/12 04:11:51;;;;;;;10.25;4.25;;;;;18.30;94206.00;;;;7399211;19;20144;-78
2023/10/12 04:17:41;;;;;;;9.38;3.80;;;;;18.50;94212.00;;;;7396505;19;20727;-80
2023/10/12 04:20:19;;;;;;;13.10;4.20;;;;;18.40;94222.00;;;;7398893;19;20136;-81
2023/10/12 04:28:52;;;;;;;11.98;4.20;;;;;18.60;94214.00;;;;7399799;19;20205;-79
2023/10/12 04:34:10;;;;;;;8.52;3.85;;;;;18.60;94223.00;;;;7401059;19;20132;-80
2023/10/12 04:36:48;;;;;;;12.02;3.90;;;;;18.40;94218.00;;;;7398197;19;20149;-79
2023/10/12 04:47:06;;;;;;;11.52;4.28;;;;;18.40;94222.00;;;;7400391;19;20141;-84
2023/10/12 04:49:54;;;;;;;8.82;4.05;;;;;18.60;94218.00;;;;7399551;19;20147;-82
2023/10/12 04:52:37;;;;;;;8.70;3.83;;;;;18.40;94216.00;;;;7398831;19;20147;-81
2023/10/12 04:55:06;;;;;;;5.93;3.92;;;;;18.50;94221.00;;;;7397813;19;20204;-85
2023/10/12 04:57:44;;;;;;;6.65;4.07;;;;;18.50;94216.00;;;;7399370;19;20149;-85
2023/10/12 05:00:24;;;;;;;8.60;4.00;;;;;18.40;94223.00;;;;7397268;19;20175;-81
2023/10/12 05:03:23;;;;;;;11.50;4.18;;;;;18.50;94215.00;;;;7397698;19;20168;-76
2023/10/12 05:06:13;;;;;;;8.15;4.03;;;;;18.70;94224.00;;;;7396391;19;20497;-76
2023/10/12 05:08:46;;;;;;;8.00;3.75;;;;;18.70;94229.00;;;;7397617;19;20165;-76
2023/10/12 05:11:27;;;;;;;9.25;3.75;;;;;18.60;94220.00;;;;7396451;19;20192;-77
2023/10/12 05:14:01;;;;;;;13.55;3.90;;;;;18.70;94217.00;;;;7397404;19;20483;-75
2023/10/12 05:16:38;;;;;;;7.63;3.92;;;;;18.60;94220.00;;;;7398094;19;20612;-77
2023/10/12 05:19:11;;;;;;;6.10;4.00;;;;;18.60;94227.00;;;;7398806;19;20587;-74
2023/10/12 05:21:46;;;;;;;9.82;4.00;;;;;18.50;94225.00;;;;7396543;19;20215;-75
2023/10/12 05:24:16;;;;;;;9.05;4.30;;;;;18.40;94232.00;;;;7396109;19;20152;-78
2023/10/12 05:28:13;;;;;;;7.75;4.35;;;;;18.50;94230.00;;;;7397159;19;20212;-77
2023/10/12 05:29:52;;;;;;;8.32;4.30;;;;;18.40;94230.00;;;;7395701;19;20152;-75
2023/10/12 05:32:42;;;;;;;7.00;4.00;;;;;18.30;94230.00;;;;7396186;19;20534;-75
2023/10/12 05:35:18;;;;;;;7.85;3.65;;;;;18.40;94228.00;;;;7396904;19;20147;-77
2023/10/12 05:37:56;;;;;;;12.55;3.92;;;;;18.30;94239.00;;;;7397743;19;20579;-76
2023/10/12 05:40:41;;;;;;;9.10;4.60;;;;;18.40;94234.00;;;;7396274;19;20140;-76
2023/10/12 05:43:22;;;;;;;11.95;4.20;;;;;18.20;94234.00;;;;7395806;19;20156;-76
2023/10/12 05:46:01;;;;;;;7.28;3.97;;;;;18.10;94234.00;;;;7395691;19;20540;-78
2023/10/12 05:48:52;;;;;;;10.00;3.85;;;;;18.20;94236.00;;;;7396767;19;20140;-75
2023/10/12 05:51:27;;;;;;;7.55;4.18;;;;;18.30;94231.00;;;;7396344;19;20137;-76
2023/10/12 05:54:01;;;;;;;8.18;3.90;;;;;18.20;94238.00;;;;7396608;19;20161;-79
2023/10/12 05:56:36;;;;;;;8.40;4.20;;;;;18.10;94244.00;;;;7395251;19;20204;-77
2023/10/12 05:59:12;;;;;;;8.82;4.30;;;;;18.30;94247.00;;;;7396480;19;20140;-78
2023/10/12 06:01:48;;;;;;;8.18;4.05;;;;;18.20;94232.00;;;;7394722;19;20149;-76
2023/10/12 06:04:21;;;;;;;11.60;3.90;;;;;18.30;94242.00;;;;7395045;19;20133;-76
2023/10/12 06:07:03;;;;;;;9.73;4.13;;;;;18.20;94240.00;;;;7393200;19;20164;-75
2023/10/12 06:09:53;;;;;;;13.15;3.78;;;;;18.40;94243.00;;;;7393697;19;20193;-76
2023/10/12 06:12:29;;;;;;;7.18;3.83;;;;;18.50;94233.00;;;;7397612;19;20164;-78
2023/10/12 06:14:58;;;;;;;6.57;3.80;;;;;18.50;94237.00;;;;7399617;19;20145;-78
2023/10/12 06:17:39;;;;;;;8.23;3.65;;;;;18.50;94225.00;;;;7398281;19;20168;-81
2023/10/12 06:20:29;;;;;;;12.27;4.05;;;;;18.70;94226.00;;;;7396269;19;20663;-79
2023/10/12 06:23:03;;;;;;;7.00;3.95;;;;;18.70;94214.00;;;;7398163;19;20144;-78
2023/10/12 06:25:43;;;;;;;10.00;4.32;;;;;18.80;94221.00;;;;7396551;19;20169;-84
2023/10/12 06:28:31;;;;;;;8.20;4.38;;;;;18.80;94226.00;;;;7396132;19;20603;-79
2023/10/12 06:31:08;;;;;;;7.32;4.05;;;;;18.70;94226.00;;;;7394235;19;20640;-77
2023/10/12 06:33:41;;;;;;;7.80;3.88;;;;;18.80;94231.00;;;;7395908;19;20165;-81
2023/10/12 06:36:22;;;;;;;9.95;3.70;;;;;18.90;94233.00;;;;7395767;19;20474;-82
2023/10/12 06:40:08;;;;;;;10.32;4.35;;;;;18.90;94249.00;;;;7395984;19;20546;-80
2023/10/12 06:44:33;;;;;;;10.00;4.20;;;;;18.90;94247.00;;;;7395224;19;20153;-84
2023/10/12 06:47:23;;;;;;;10.93;4.13;;;;;18.90;94259.00;;;;7395792;19;20157;-81
2023/10/12 06:50:00;;;;;;;13.32;4.40;;;;;18.90;94264.00;;;;7398252;19;20520;-81
2023/10/12 06:52:34;;;;;;;10.98;4.05;;;;;18.90;94259.00;;;;7398347;19;20220;-76
2023/10/12 06:55:09;;;;;;;10.50;4.03;;;;;18.90;94265.00;;;;7398532;19;20120;-82
2023/10/12 06:57:42;;;;;;;12.68;3.90;;;;;18.90;94275.00;;;;7396761;19;20471;-82
2023/10/12 07:00:28;;;;;;;7.55;4.30;;;;;18.80;94274.00;;;;7395510;19;20141;-82
2023/10/12 07:02:56;;;;;;;11.95;4.38;;;;;19.00;94280.00;;;;7394140;19;20141;-82
2023/10/12 07:05:46;;;;;;;10.40;4.35;;;;;18.90;94289.00;;;;7396645;19;20514;-82
2023/10/12 07:08:21;;;;;;;7.78;3.95;;;;;18.90;94291.00;;;;7397719;19;20134;-84
2023/10/12 07:11:00;;;;;;;7.40;4.07;;;;;19.10;94301.00;;;;7394858;19;20136;-78
2023/10/12 07:13:29;;;;;;;10.93;4.13;;;;;18.90;94303.00;;;;7396278;19;20149;-83
2023/10/12 07:16:06;;;;;;;13.13;4.45;;;;;18.90;94308.00;;;;7393769;19;20149;-83
2023/10/12 07:18:43;;;;;;;14.90;3.80;;;;;19.00;94307.00;;;;7398345;19;20216;-84
2023/10/12 07:21:36;;;;;;;7.20;4.25;;;;;19.10;94307.00;;;;7397851;19;20638;-80
2023/10/12 07:24:07;;;;;;;6.55;3.88;;;;;19.00;94311.00;;;;7393535;19;20141;-84
2023/10/12 07:26:48;;;;;;;10.88;3.92;;;;;19.10;94318.00;;;;7396157;19;20180;-78
2023/10/12 07:29:27;;;;;;;9.38;4.45;;;;;19.10;94298.00;;;;7394034;19;20152;-80
2023/10/12 07:32:21;;;;;;;10.55;3.83;;;;;19.10;94298.00;;;;7393247;19;20171;-83
2023/10/12 07:35:07;;;;;;;9.48;4.40;;;;;19.20;94295.00;;;;7394168;19;20141;-81
2023/10/12 07:37:42;;;;;;;9.23;4.47;;;;;19.40;94303.00;;;;7394236;19;20152;-82
2023/10/12 07:40:19;;;;;;;6.05;3.92;;;;;19.20;94304.00;;;;7396518;19;20137;-86
2023/10/12 07:43:00;;;;;;;10.48;4.60;;;;;19.30;94307.00;;;;7401191;19;20140;-81
2023/10/12 07:45:47;;;;;;;15.70;4.30;;;;;19.30;94314.00;;;;7401231;19;20152;-83
2023/10/12 07:48:39;;;;;;;10.30;4.63;;;;;19.40;94313.00;;;;7402420;19;20153;-82
2023/10/12 07:51:28;;;;;;;10.13;4.78;;;;;19.50;94329.00;;;;7402785;19;20133;-83
2023/10/12 07:54:25;;;;;;;6.88;3.92;;;;;19.50;94318.00;;;;7400860;19;20144;-80
2023/10/12 07:56:53;;;;;;;15.07;4.38;;;;;19.60;94333.00;;;;7400486;19;20576;-81
2023/10/12 07:59:29;;;;;;;15.55;4.13;;;;;19.60;94323.00;;;;7400662;19;20152;-81
2023/10/12 08:01:58;;;;;;;8.43;3.72;;;;;19.70;94310.00;;;;7400556;19;20165;-83
2023/10/12 08:04:39;;;;;;;8.80;4.00;;;;;19.60;94326.00;;;;7397865;19;20152;-80
2023/10/12 08:07:14;;;;;;;10.00;3.92;;;;;19.70;94313.00;;;;7399572;19;20224;-82
2023/10/12 08:09:51;;;;;;;10.35;4.43;;;;;19.80;94310.00;;;;7401635;19;20546;-79
2023/10/12 08:12:25;;;;;;;14.52;3.90;;;;;19.80;94307.00;;;;7398313;19;20623;-79
2023/10/12 08:15:09;;;;;;;7.90;4.13;;;;;19.80;94322.00;;;;7398640;19;20992;-81
2023/10/12 08:17:45;;;;;;;7.63;3.72;;;;;19.80;94328.00;;;;7400653;19;20137;-80
2023/10/12 08:23:35;;;;;;;11.75;4.32;;;;;19.90;94328.00;;;;7396912;19;20608;-80
2023/10/12 08:26:03;;;;;;;11.05;4.60;;;;;19.80;94333.00;;;;7396826;19;20142;-80
2023/10/12 08:28:54;;;;;;;11.23;3.95;;;;;19.80;94329.00;;;;7398472;19;20137;-78
2023/10/12 08:31:27;;;;;;;12.98;4.22;;;;;19.80;94334.00;;;;7400826;19;20511;-80
2023/10/12 08:34:13;;;;;;;6.70;4.00;;;;;19.80;94330.00;;;;7398617;19;20145;-79
2023/10/12 08:45:09;;;;;;;13.38;4.22;;;;;20.00;94328.00;;;;7396478;19;20151;-76
2023/10/12 08:52:56;;;;;;;9.80;3.97;;;;;20.30;94337.00;;;;7395866;19;20148;-78
2023/10/12 08:55:32;;;;;;;8.95;4.20;;;;;20.50;94327.00;;;;7397632;19;20149;-80
2023/10/12 08:58:52;;;;;;;14.85;4.70;;;;;20.40;94331.00;;;;7398977;19;20601;-77
2023/10/12 09:01:31;;;;;;;11.82;4.63;;;;;20.40;94335.00;;;;7397086;19;20238;-81
2023/10/12 09:04:11;;;;;;;11.02;4.03;;;;;20.50;94329.00;;;;7397196;19;20593;-75
2023/10/12 09:12:13;;;;;;;9.45;4.18;;;;;20.70;94332.00;;;;7397552;19;20164;-73
2023/10/12 09:14:45;;;;;;;7.15;4.10;;;;;20.60;94341.00;;;;7398437;19;20165;-78
2023/10/12 09:17:27;;;;;;;8.93;4.00;;;;;20.90;94347.00;;;;7398679;19;20135;-76
2023/10/12 09:22:57;;;;;;;7.55;4.20;;;;;21.10;94343.00;;;;7398110;19;20149;-79
2023/10/12 09:28:42;;;;;;;7.47;4.50;;;;;21.40;94335.00;;;;7398038;19;20566;-76
2023/10/12 09:31:27;;;;;;;12.55;4.70;;;;;21.20;94342.00;;;;7397132;19;20140;-74
2023/10/12 09:36:53;;;;;;;13.52;4.05;;;;;21.50;94342.00;;;;7398484;19;20576;-76
2023/10/12 09:39:34;;;;;;;10.77;4.55;;;;;21.50;94345.00;;;;7398860;19;20137;-78
2023/10/12 09:42:22;;;;;;;8.65;4.80;;;;;21.60;94343.00;;;;7395933;19;20702;-76
2023/10/12 09:45:10;;;;;;;12.02;4.70;;;;;21.80;94359.00;;;;7397326;19;20184;-81
2023/10/12 09:48:05;;;;;;;7.00;4.20;;;;;21.60;94350.00;;;;7396956;19;20152;-81
2023/10/12 09:50:41;;;;;;;9.77;4.55;;;;;21.60;94353.00;;;;7399961;19;20182;-84
2023/10/12 09:53:14;;;;;;;10.57;4.78;;;;;21.70;94360.00;;;;7397959;19;20153;-82
2023/10/12 09:56:03;;;;;;;7.25;4.10;;;;;21.40;94356.00;;;;7398960;19;20157;-80
2023/10/12 09:58:34;;;;;;;13.43;4.97;;;;;21.50;94366.00;;;;7399685;19;20141;-79
2023/10/12 10:01:15;;;;;;;7.68;4.20;;;;;21.40;94355.00;;;;7401042;19;20138;-80
2023/10/12 10:03:52;;;;;;;8.18;4.22;;;;;21.30;94360.00;;;;7394251;19;20172;-82
2023/10/12 10:06:37;;;;;;;7.90;4.25;;;;;21.30;94365.00;;;;7396100;19;20269;-80
2023/10/12 10:09:37;;;;;;;7.45;4.28;;;;;21.10;94380.00;;;;7399516;19;20141;-81
2023/10/12 10:12:17;;;;;;;8.05;5.00;;;;;21.30;94385.00;;;;7398319;19;20149;-80
2023/10/12 10:15:10;;;;;;;9.43;4.72;;;;;21.30;94383.00;;;;7400773;19;20137;-79
2023/10/12 10:17:47;;;;;;;6.97;4.38;;;;;21.40;94377.00;;;;7399058;19;20592;-79
2023/10/12 10:23:03;;;;;;;11.45;4.40;;;;;21.80;94378.00;;;;7400022;19;20136;-82
2023/10/12 10:25:50;;;;;;;8.00;4.18;;;;;21.50;94375.00;;;;7396005;19;20600;-82
2023/10/12 10:28:32;;;;;;;6.90;4.25;;;;;21.50;94381.00;;;;7396837;19;20149;-87
2023/10/12 10:31:11;;;;;;;12.15;4.93;;;;;21.60;94382.00;;;;7399229;19;20132;-82
2023/10/12 10:33:40;;;;;;;9.60;4.20;;;;;21.70;94373.00;;;;7398487;19;20596;-81
2023/10/12 10:36:25;;;;;;;8.68;3.72;;;;;21.70;94377.00;;;;7401060;19;20149;-85
2023/10/12 10:38:54;;;;;;;8.75;4.07;;;;;21.80;94378.00;;;;7396395;19;20165;-80
2023/10/12 10:41:45;;;;;;;12.15;3.97;;;;;21.70;94377.00;;;;7397672;19;20133;-79
2023/10/12 10:44:26;;;;;;;6.97;3.70;;;;;22.00;94371.00;;;;7400235;19;20137;-81
2023/10/12 10:47:12;;;;;;;6.50;3.63;;;;;22.00;94377.00;;;;7398994;19;20148;-80
2023/10/12 10:49:48;;;;;;;11.00;3.70;;;;;22.40;94379.00;;;;7398466;19;20262;-78
2023/10/12 10:52:26;;;;;;;8.00;3.85;;;;;22.40;94370.00;;;;7400567;19;20151;-79
2023/10/12 10:55:01;;;;;;;9.82;4.30;;;;;22.80;94364.00;;;;7397505;19;20156;-78
2023/10/12 10:57:37;;;;;;;9.30;3.90;;;;;22.90;94366.00;;;;7396020;19;20256;-77
2023/10/12 11:00:17;;;;;;;10.15;3.97;;;;;22.90;94376.00;;;;7396373;19;20129;-78
2023/10/12 11:02:48;;;;;;;6.13;3.78;;;;;22.80;94370.00;;;;7396088;19;20140;-79
2023/10/12 11:05:28;;;;;;;6.40;3.60;;;;;22.80;94369.00;;;;7393586;19;20145;-79
2023/10/12 11:08:19;;;;;;;9.60;3.50;;;;;22.80;94380.00;;;;7393142;19;20519;-79
2023/10/12 11:13:40;;;;;;;10.65;3.40;;;;;22.60;94386.00;;;;7397787;19;20137;-82
2023/10/12 11:16:20;;;;;;;8.63;3.60;;;;;22.30;94374.00;;;;7401113;19;20144;-81
2023/10/12 11:18:52;;;;;;;5.68;3.15;;;;;22.50;94372.00;;;;7403168;19;20148;-75
2023/10/12 11:21:26;;;;;;;8.85;3.80;;;;;22.60;94366.00;;;;7403252;19;20496;-79
2023/10/12 11:24:00;;;;;;;7.10;3.67;;;;;22.70;94366.00;;;;7404406;19;20137;-78
2023/10/12 11:26:51;;;;;;;8.13;3.75;;;;;22.80;94362.00;;;;7400286;19;20141;-77
2023/10/12 11:29:26;;;;;;;11.15;3.80;;;;;23.00;94369.00;;;;7405612;19;20592;-76
2023/10/12 11:32:08;;;;;;;9.70;4.30;;;;;22.90;94371.00;;;;7403287;19;20484;-79
2023/10/12 11:34:52;;;;;;;14.90;3.88;;;;;22.90;94365.00;;;;7401344;19;20549;-77
2023/10/12 11:37:23;;;;;;;14.02;3.83;;;;;23.40;94360.00;;;;7403914;19;20141;-79
2023/10/12 11:39:59;;;;;;;4.90;3.30;;;;;23.90;94363.00;;;;7407160;19;20145;-77
2023/10/12 11:42:28;;;;;;;6.70;3.95;;;;;24.00;94362.00;;;;7403510;19;20144;-82
2023/10/12 11:45:06;;;;;;;10.90;4.00;;;;;23.80;94349.00;;;;7403972;19;20577;-78
2023/10/12 11:47:41;;;;;;;10.07;3.50;;;;;23.80;94361.00;;;;7404675;19;20125;-82
2023/10/12 11:50:11;;;;;;;9.82;3.83;;;;;24.10;94366.00;;;;7404036;19;20246;-84
2023/10/12 11:52:40;;;;;;;7.75;4.32;;;;;23.70;94361.00;;;;7405542;19;20588;-78
2023/10/12 11:55:28;;;;;;;7.45;3.95;;;;;23.00;94363.00;;;;7400112;19;20640;-78
2023/10/12 11:57:57;;;;;;;9.35;3.78;;;;;22.30;94359.00;;;;7399320;19;20155;-74
2023/10/12 12:00:36;;;;;;;6.70;3.70;;;;;22.30;94362.00;;;;7400917;19;20129;-81
2023/10/12 12:03:17;;;;;;;8.43;3.63;;;;;22.50;94364.00;;;;7399425;19;20600;-78
2023/10/12 12:06:02;;;;;;;11.45;4.22;;;;;21.90;94374.00;;;;7396575;19;20631;-75
2023/10/12 12:08:47;;;;;;;10.07;4.40;;;;;22.20;94359.00;;;;7399446;19;20149;-80
2023/10/12 12:11:19;;;;;;;10.40;3.72;;;;;22.30;94351.00;;;;7400622;19;20255;-80
2023/10/12 12:13:59;;;;;;;7.32;3.88;;;;;22.30;94355.00;;;;7400724;19;20145;-82
2023/10/12 12:16:27;;;;;;;6.90;3.50;;;;;22.30;94351.00;;;;7400891;19;20654;-83
2023/10/12 12:19:01;;;;;;;9.07;4.07;;;;;22.30;94352.00;;;;7403351;19;20125;-90
2023/10/12 12:21:30;;;;;;;7.38;3.95;;;;;22.10;94340.00;;;;7400868;19;20502;-81
2023/10/12 12:26:55;;;;;;;9.80;4.20;;;;;22.00;94352.00;;;;7399499;19;20133;-82
2023/10/12 12:29:38;;;;;;;14.32;4.15;;;;;22.00;94352.00;;;;7401753;19;20136;-82
2023/10/12 12:32:12;;;;;;;6.53;3.63;;;;;21.80;94346.00;;;;7398014;19;20448;-78
2023/10/12 12:34:47;;;;;;;15.18;4.25;;;;;21.60;94355.00;;;;7400342;19;20144;-76
2023/10/12 12:37:19;;;;;;;10.18;3.80;;;;;21.50;94349.00;;;;7402730;19;20470;-76
2023/10/12 12:42:46;;;;;;;10.95;3.80;;;;;21.60;94336.00;;;;7399201;19;20159;-77
2023/10/12 12:45:15;;;;;;;13.20;4.63;;;;;21.40;94335.00;;;;7398837;19;20145;-78
2023/10/12 12:47:49;;;;;;;7.82;4.20;;;;;21.70;94313.00;;;;7403344;19;20124;-77
2023/10/12 12:50:17;;;;;;;9.43;3.83;;;;;21.90;94310.00;;;;7400568;19;20145;-78
2023/10/12 12:52:51;;;;;;;8.25;4.32;;;;;22.10;94302.00;;;;7403515;19;20596;-78
2023/10/12 12:55:27;;;;;;;8.02;3.78;;;;;22.20;94306.00;;;;7400808;19;20576;-78
2023/10/12 12:58:02;;;;;;;12.32;4.28;;;;;22.40;94297.00;;;;7402525;19;20140;-78
2023/10/12 13:00:33;;;;;;;6.93;4.05;;;;;22.40;94312.00;;;;7399636;19;20156;-77
2023/10/12 13:03:09;;;;;;;7.53;3.60;;;;;22.70;94311.00;;;;7399243;19;20148;-80
2023/10/12 13:05:37;;;;;;;12.82;4.05;;;;;23.00;94311.00;;;;7399938;19;20683;-81
2023/10/12 13:08:17;;;;;;;7.57;3.65;;;;;22.90;94306.00;;;;7400409;19;20149;-75
2023/10/12 13:10:45;;;;;;;8.20;3.95;;;;;22.40;94298.00;;;;7397519;19;20149;-81
2023/10/12 13:13:21;;;;;;;12.38;3.75;;;;;22.50;94292.00;;;;7400336;19;20151;-77
2023/10/12 13:15:55;;;;;;;8.55;3.53;;;;;22.90;94298.00;;;;7400498;19;20153;-78
2023/10/12 13:18:30;;;;;;;9.88;4.22;;;;;23.00;94283.00;;;;7399996;19;20558;-78
2023/10/12 13:20:59;;;;;;;13.07;4.40;;;;;23.20;94282.00;;;;7398828;19;20560;-77
2023/10/12 13:23:26;;;;;;;9.23;4.13;;;;;22.90;94262.00;;;;7399057;19;20535;-77
2023/10/12 13:26:12;;;;;;;12.45;3.88;;;;;23.10;94259.00;;;;7398438;19;20632;-77
2023/10/12 13:28:48;;;;;;;7.03;3.83;;;;;23.40;94269.00;;;;7401438;19;20655;-77
2023/10/12 13:31:23;;;;;;;6.80;4.00;;;;;23.20;94249.00;;;;7399680;19;20177;-78
2023/10/12 13:34:05;;;;;;;12.40;4.15;;;;;23.00;94263.00;;;;7397778;19;20156;-78
2023/10/12 13:36:39;;;;;;;12.88;4.13;;;;;23.10;94258.00;;;;7399665;19;20572;-74
2023/10/12 13:39:11;;;;;;;8.68;4.30;;;;;23.10;94261.00;;;;7399188;19;20136;-77
2023/10/12 13:41:45;;;;;;;8.00;4.30;;;;;23.00;94255.00;;;;7398075;19;20149;-77
2023/10/12 13:44:19;;;;;;;10.40;4.20;;;;;23.10;94253.00;;;;7398236;19;20133;-76
2023/10/12 13:46:53;;;;;;;9.32;4.03;;;;;23.30;94250.00;;;;7397703;19;20136;-78
2023/10/12 13:49:22;;;;;;;6.70;3.88;;;;;23.40;94249.00;;;;7398218;19;20707;-77
2023/10/12 13:51:56;;;;;;;13.18;4.10;;;;;23.30;94262.00;;;;7398901;19;20733;-78
2023/10/12 13:54:33;;;;;;;11.68;4.18;;;;;22.90;94261.00;;;;7398914;19;20141;-77
2023/10/12 13:57:07;;;;;;;9.52;4.03;;;;;23.10;94257.00;;;;7397101;19;20156;-78
2023/10/12 13:59:47;;;;;;;11.32;3.78;;;;;23.30;94218.00;;;;7400525;19;20459;-79
2023/10/12 14:02:16;;;;;;;5.72;3.38;;;;;23.40;94259.00;;;;7398822;19;20144;-80
2023/10/12 14:05:08;;;;;;;11.13;4.38;;;;;23.50;94253.00;;;;7399032;19;20231;-78
2023/10/12 14:07:38;;;;;;;10.05;4.18;;;;;23.40;94247.00;;;;7395446;19;20608;-78
2023/10/12 14:10:14;;;;;;;9.77;4.10;;;;;23.40;94241.00;;;;7400122;19;20133;-78
2023/10/12 14:12:53;;;;;;;5.65;3.97;;;;;23.10;94250.00;;;;7397286;19;20132;-76
2023/10/12 14:15:30;;;;;;;9.93;4.18;;;;;23.00;94247.00;;;;7397670;19;20660;-77
2023/10/12 14:18:05;;;;;;;7.03;4.20;;;;;23.00;94245.00;;;;7398122;19;20148;-76
2023/10/12 14:20:46;;;;;;;10.45;4.43;;;;;23.20;94240.00;;;;7398910;19;20651;-77
2023/10/12 14:23:14;;;;;;;7.30;4.15;;;;;23.20;94242.00;;;;7396806;19;20141;-77
2023/10/12 14:25:51;;;;;;;13.32;4.18;;;;;23.20;94236.00;;;;7396056;19;20148;-78
2023/10/12 14:28:19;;;;;;;12.02;4.18;;;;;23.40;94250.00;;;;7393600;19;20133;-79